sensor_id;sensor_type;location;lat;lon;timestamp;P1;durP1;ratioP1;P2;durP2;ratioP2
57107;SDS011;42987;52.916;6.542;2023-11-21T00:00:33;51.55;;;25.00;;
57107;SDS011;42987;52.916;6.542;2023-11-21T00:02:59;50.35;;;24.20;;
57107;SDS011;42987;52.916;6.542;2023-11-21T00:05:25;44.08;;;23.60;;
57107;SDS011;42987;52.916;6.542;2023-11-21T00:07:50;47.25;;;22.95;;
57107;SDS011;42987;52.916;6.542;2023-11-21T00:10:16;62.40;;;26.48;;
57107;SDS011;42987;52.916;6.542;2023-11-21T00:12:42;48.30;;;23.83;;
57107;SDS011;42987;52.916;6.542;2023-11-21T00:15:08;40.53;;;23.13;;
57107;SDS011;42987;52.916;6.542;2023-11-21T00:17:38;70.25;;;28.52;;
57107;SDS011;42987;52.916;6.542;2023-11-21T00:20:07;50.80;;;24.42;;
57107;SDS011;42987;52.916;6.542;2023-11-21T00:22:37;44.55;;;24.02;;
57107;SDS011;42987;52.916;6.542;2023-11-21T00:25:03;45.97;;;25.63;;
57107;SDS011;42987;52.916;6.542;2023-11-21T00:27:29;46.28;;;23.77;;
57107;SDS011;42987;52.916;6.542;2023-11-21T00:29:55;42.92;;;23.80;;
57107;SDS011;42987;52.916;6.542;2023-11-21T00:32:22;49.75;;;25.90;;
57107;SDS011;42987;52.916;6.542;2023-11-21T00:34:47;43.55;;;24.65;;
57107;SDS011;42987;52.916;6.542;2023-11-21T00:37:16;51.17;;;25.75;;
57107;SDS011;42987;52.916;6.542;2023-11-21T00:39:41;43.00;;;23.83;;
57107;SDS011;42987;52.916;6.542;2023-11-21T00:42:07;57.58;;;26.30;;
57107;SDS011;42987;52.916;6.542;2023-11-21T00:44:33;51.40;;;24.70;;
57107;SDS011;42987;52.916;6.542;2023-11-21T00:47:02;58.88;;;25.85;;
57107;SDS011;42987;52.916;6.542;2023-11-21T00:49:31;49.63;;;24.83;;
57107;SDS011;42987;52.916;6.542;2023-11-21T00:51:57;56.95;;;26.67;;
57107;SDS011;42987;52.916;6.542;2023-11-21T00:54:23;46.55;;;24.05;;
57107;SDS011;42987;52.916;6.542;2023-11-21T00:56:49;55.05;;;25.45;;
57107;SDS011;42987;52.916;6.542;2023-11-21T00:59:14;55.35;;;24.77;;
57107;SDS011;42987;52.916;6.542;2023-11-21T01:01:40;41.92;;;22.38;;
57107;SDS011;42987;52.916;6.542;2023-11-21T01:04:06;46.60;;;22.85;;
57107;SDS011;42987;52.916;6.542;2023-11-21T01:06:32;47.30;;;23.33;;
57107;SDS011;42987;52.916;6.542;2023-11-21T01:08:58;51.47;;;22.73;;
57107;SDS011;42987;52.916;6.542;2023-11-21T01:11:24;43.85;;;23.30;;
57107;SDS011;42987;52.916;6.542;2023-11-21T01:13:50;46.58;;;21.92;;
57107;SDS011;42987;52.916;6.542;2023-11-21T01:16:15;46.83;;;22.80;;
57107;SDS011;42987;52.916;6.542;2023-11-21T01:18:41;51.15;;;23.27;;
57107;SDS011;42987;52.916;6.542;2023-11-21T01:21:07;42.03;;;20.55;;
57107;SDS011;42987;52.916;6.542;2023-11-21T01:23:34;42.05;;;21.60;;
57107;SDS011;42987;52.916;6.542;2023-11-21T01:26:00;40.47;;;21.67;;
57107;SDS011;42987;52.916;6.542;2023-11-21T01:28:25;45.03;;;21.52;;
57107;SDS011;42987;52.916;6.542;2023-11-21T01:30:51;50.63;;;23.10;;
57107;SDS011;42987;52.916;6.542;2023-11-21T01:33:24;44.05;;;21.17;;
57107;SDS011;42987;52.916;6.542;2023-11-21T01:35:50;42.80;;;21.70;;
57107;SDS011;42987;52.916;6.542;2023-11-21T01:38:18;52.22;;;23.60;;
57107;SDS011;42987;52.916;6.542;2023-11-21T01:40:43;44.55;;;21.13;;
57107;SDS011;42987;52.916;6.542;2023-11-21T01:43:09;43.00;;;20.70;;
57107;SDS011;42987;52.916;6.542;2023-11-21T01:45:35;46.35;;;20.65;;
57107;SDS011;42987;52.916;6.542;2023-11-21T01:48:01;43.17;;;20.73;;
57107;SDS011;42987;52.916;6.542;2023-11-21T01:50:28;44.25;;;21.63;;
57107;SDS011;42987;52.916;6.542;2023-11-21T01:52:54;46.40;;;22.65;;
57107;SDS011;42987;52.916;6.542;2023-11-21T01:55:20;50.90;;;23.20;;
57107;SDS011;42987;52.916;6.542;2023-11-21T01:57:46;45.50;;;22.40;;
57107;SDS011;42987;52.916;6.542;2023-11-21T02:00:13;43.35;;;20.63;;
57107;SDS011;42987;52.916;6.542;2023-11-21T02:02:45;65.97;;;25.35;;
57107;SDS011;42987;52.916;6.542;2023-11-21T02:05:13;54.75;;;23.23;;
57107;SDS011;42987;52.916;6.542;2023-11-21T02:07:43;55.60;;;25.75;;
57107;SDS011;42987;52.916;6.542;2023-11-21T02:10:10;64.75;;;26.20;;
57107;SDS011;42987;52.916;6.542;2023-11-21T02:12:43;59.05;;;24.50;;
57107;SDS011;42987;52.916;6.542;2023-11-21T02:15:12;54.63;;;23.70;;
57107;SDS011;42987;52.916;6.542;2023-11-21T02:17:51;54.95;;;24.85;;
57107;SDS011;42987;52.916;6.542;2023-11-21T02:20:20;63.92;;;25.48;;
57107;SDS011;42987;52.916;6.542;2023-11-21T02:22:55;56.17;;;25.65;;
57107;SDS011;42987;52.916;6.542;2023-11-21T02:27:57;62.80;;;25.73;;
57107;SDS011;42987;52.916;6.542;2023-11-21T02:30:24;97.97;;;32.70;;
57107;SDS011;42987;52.916;6.542;2023-11-21T02:32:50;62.70;;;27.77;;
57107;SDS011;42987;52.916;6.542;2023-11-21T02:35:19;67.82;;;28.13;;
57107;SDS011;42987;52.916;6.542;2023-11-21T02:37:48;57.80;;;26.73;;
57107;SDS011;42987;52.916;6.542;2023-11-21T02:40:15;59.45;;;28.00;;
57107;SDS011;42987;52.916;6.542;2023-11-21T02:45:18;68.03;;;27.95;;
57107;SDS011;42987;52.916;6.542;2023-11-21T02:47:45;67.10;;;26.98;;
57107;SDS011;42987;52.916;6.542;2023-11-21T02:50:11;75.57;;;29.95;;
57107;SDS011;42987;52.916;6.542;2023-11-21T02:52:37;68.15;;;27.80;;
57107;SDS011;42987;52.916;6.542;2023-11-21T02:55:05;78.72;;;29.75;;
57107;SDS011;42987;52.916;6.542;2023-11-21T02:57:32;70.68;;;29.73;;
57107;SDS011;42987;52.916;6.542;2023-11-21T02:59:58;61.78;;;27.48;;
57107;SDS011;42987;52.916;6.542;2023-11-21T03:02:25;66.05;;;29.33;;
57107;SDS011;42987;52.916;6.542;2023-11-21T03:04:51;72.85;;;31.48;;
57107;SDS011;42987;52.916;6.542;2023-11-21T03:07:17;108.82;;;35.50;;
57107;SDS011;42987;52.916;6.542;2023-11-21T03:09:49;80.65;;;31.50;;
57107;SDS011;42987;52.916;6.542;2023-11-21T03:12:15;74.68;;;32.58;;
57107;SDS011;42987;52.916;6.542;2023-11-21T03:14:41;69.20;;;31.13;;
57107;SDS011;42987;52.916;6.542;2023-11-21T03:17:07;67.00;;;31.50;;
57107;SDS011;42987;52.916;6.542;2023-11-21T03:19:33;73.57;;;31.23;;
57107;SDS011;42987;52.916;6.542;2023-11-21T03:21:59;79.22;;;33.45;;
57107;SDS011;42987;52.916;6.542;2023-11-21T03:24:24;74.60;;;31.67;;
57107;SDS011;42987;52.916;6.542;2023-11-21T03:26:54;87.47;;;33.53;;
57107;SDS011;42987;52.916;6.542;2023-11-21T03:29:20;78.03;;;32.80;;
57107;SDS011;42987;52.916;6.542;2023-11-21T03:31:46;71.88;;;33.00;;
57107;SDS011;42987;52.916;6.542;2023-11-21T03:34:16;85.68;;;34.50;;
57107;SDS011;42987;52.916;6.542;2023-11-21T03:36:48;68.07;;;31.30;;
57107;SDS011;42987;52.916;6.542;2023-11-21T03:39:14;69.10;;;32.35;;
57107;SDS011;42987;52.916;6.542;2023-11-21T03:41:39;74.18;;;30.40;;
57107;SDS011;42987;52.916;6.542;2023-11-21T03:44:05;77.85;;;33.80;;
57107;SDS011;42987;52.916;6.542;2023-11-21T03:46:31;67.35;;;30.25;;
57107;SDS011;42987;52.916;6.542;2023-11-21T03:48:56;68.53;;;30.35;;
57107;SDS011;42987;52.916;6.542;2023-11-21T03:51:22;74.35;;;32.13;;
57107;SDS011;42987;52.916;6.542;2023-11-21T03:53:48;74.05;;;32.80;;
57107;SDS011;42987;52.916;6.542;2023-11-21T03:56:14;82.30;;;33.35;;
57107;SDS011;42987;52.916;6.542;2023-11-21T03:58:40;84.18;;;32.75;;
57107;SDS011;42987;52.916;6.542;2023-11-21T04:01:06;83.90;;;34.00;;
57107;SDS011;42987;52.916;6.542;2023-11-21T04:03:31;91.72;;;35.47;;
57107;SDS011;42987;52.916;6.542;2023-11-21T04:05:57;74.80;;;33.42;;
57107;SDS011;42987;52.916;6.542;2023-11-21T04:08:23;79.30;;;35.10;;
57107;SDS011;42987;52.916;6.542;2023-11-21T04:10:50;74.10;;;34.13;;
57107;SDS011;42987;52.916;6.542;2023-11-21T04:13:16;77.75;;;34.30;;
57107;SDS011;42987;52.916;6.542;2023-11-21T04:15:41;79.60;;;34.47;;
57107;SDS011;42987;52.916;6.542;2023-11-21T04:18:07;73.15;;;33.20;;
57107;SDS011;42987;52.916;6.542;2023-11-21T04:20:33;74.00;;;32.53;;
57107;SDS011;42987;52.916;6.542;2023-11-21T04:22:59;68.00;;;33.28;;
57107;SDS011;42987;52.916;6.542;2023-11-21T04:25:24;76.13;;;33.75;;
57107;SDS011;42987;52.916;6.542;2023-11-21T04:27:50;86.55;;;37.28;;
57107;SDS011;42987;52.916;6.542;2023-11-21T04:30:19;82.15;;;35.83;;
57107;SDS011;42987;52.916;6.542;2023-11-21T04:32:45;71.25;;;35.08;;
57107;SDS011;42987;52.916;6.542;2023-11-21T04:35:11;77.75;;;35.90;;
57107;SDS011;42987;52.916;6.542;2023-11-21T04:37:37;76.60;;;34.25;;
57107;SDS011;42987;52.916;6.542;2023-11-21T04:40:03;73.38;;;32.78;;
57107;SDS011;42987;52.916;6.542;2023-11-21T04:42:35;90.73;;;36.67;;
57107;SDS011;42987;52.916;6.542;2023-11-21T04:45:02;75.60;;;34.13;;
57107;SDS011;42987;52.916;6.542;2023-11-21T04:47:34;78.25;;;36.42;;
57107;SDS011;42987;52.916;6.542;2023-11-21T04:50:00;82.63;;;35.80;;
57107;SDS011;42987;52.916;6.542;2023-11-21T04:52:27;81.32;;;35.88;;
57107;SDS011;42987;52.916;6.542;2023-11-21T04:54:52;76.47;;;35.83;;
57107;SDS011;42987;52.916;6.542;2023-11-21T04:57:20;68.38;;;33.58;;
57107;SDS011;42987;52.916;6.542;2023-11-21T04:59:47;77.70;;;35.60;;
57107;SDS011;42987;52.916;6.542;2023-11-21T05:02:13;67.80;;;32.08;;
57107;SDS011;42987;52.916;6.542;2023-11-21T05:04:42;67.55;;;32.85;;
57107;SDS011;42987;52.916;6.542;2023-11-21T05:07:08;57.95;;;32.45;;
57107;SDS011;42987;52.916;6.542;2023-11-21T05:09:34;66.10;;;31.75;;
57107;SDS011;42987;52.916;6.542;2023-11-21T05:12:01;64.18;;;31.33;;
57107;SDS011;42987;52.916;6.542;2023-11-21T05:14:29;55.15;;;31.08;;
57107;SDS011;42987;52.916;6.542;2023-11-21T05:16:55;58.78;;;31.27;;
57107;SDS011;42987;52.916;6.542;2023-11-21T05:19:21;63.33;;;32.00;;
57107;SDS011;42987;52.916;6.542;2023-11-21T05:21:47;69.10;;;33.00;;
57107;SDS011;42987;52.916;6.542;2023-11-21T05:24:13;69.82;;;33.15;;
57107;SDS011;42987;52.916;6.542;2023-11-21T05:26:39;82.82;;;34.22;;
57107;SDS011;42987;52.916;6.542;2023-11-21T05:29:05;82.82;;;35.00;;
57107;SDS011;42987;52.916;6.542;2023-11-21T05:31:31;74.82;;;34.67;;
57107;SDS011;42987;52.916;6.542;2023-11-21T05:33:56;62.17;;;32.38;;
57107;SDS011;42987;52.916;6.542;2023-11-21T05:36:22;67.75;;;33.45;;
57107;SDS011;42987;52.916;6.542;2023-11-21T05:38:48;67.10;;;31.38;;
57107;SDS011;42987;52.916;6.542;2023-11-21T05:41:14;72.90;;;33.63;;
57107;SDS011;42987;52.916;6.542;2023-11-21T05:43:40;70.68;;;33.65;;
57107;SDS011;42987;52.916;6.542;2023-11-21T05:46:06;72.05;;;33.22;;
57107;SDS011;42987;52.916;6.542;2023-11-21T05:48:32;71.32;;;34.05;;
57107;SDS011;42987;52.916;6.542;2023-11-21T05:50:58;76.32;;;34.00;;
57107;SDS011;42987;52.916;6.542;2023-11-21T05:53:24;67.88;;;32.25;;
57107;SDS011;42987;52.916;6.542;2023-11-21T05:55:50;76.18;;;33.42;;
57107;SDS011;42987;52.916;6.542;2023-11-21T05:58:16;67.53;;;33.80;;
57107;SDS011;42987;52.916;6.542;2023-11-21T06:00:42;67.28;;;32.17;;
57107;SDS011;42987;52.916;6.542;2023-11-21T06:03:07;66.55;;;31.95;;
57107;SDS011;42987;52.916;6.542;2023-11-21T06:05:33;67.53;;;31.10;;
57107;SDS011;42987;52.916;6.542;2023-11-21T06:07:59;66.15;;;31.90;;
57107;SDS011;42987;52.916;6.542;2023-11-21T06:10:26;62.58;;;29.85;;
57107;SDS011;42987;52.916;6.542;2023-11-21T06:12:53;57.75;;;29.00;;
57107;SDS011;42987;52.916;6.542;2023-11-21T06:15:19;65.05;;;30.27;;
57107;SDS011;42987;52.916;6.542;2023-11-21T06:17:47;63.78;;;29.75;;
57107;SDS011;42987;52.916;6.542;2023-11-21T06:20:17;64.38;;;29.48;;
57107;SDS011;42987;52.916;6.542;2023-11-21T06:22:44;63.92;;;28.10;;
57107;SDS011;42987;52.916;6.542;2023-11-21T06:25:11;68.57;;;29.80;;
57107;SDS011;42987;52.916;6.542;2023-11-21T06:27:42;62.47;;;28.02;;
57107;SDS011;42987;52.916;6.542;2023-11-21T06:30:13;77.10;;;31.17;;
57107;SDS011;42987;52.916;6.542;2023-11-21T06:32:40;71.03;;;30.75;;
57107;SDS011;42987;52.916;6.542;2023-11-21T06:35:07;79.85;;;32.95;;
57107;SDS011;42987;52.916;6.542;2023-11-21T06:37:36;76.88;;;31.25;;
57107;SDS011;42987;52.916;6.542;2023-11-21T06:40:02;77.95;;;31.80;;
57107;SDS011;42987;52.916;6.542;2023-11-21T06:42:31;59.70;;;29.30;;
57107;SDS011;42987;52.916;6.542;2023-11-21T06:44:58;56.88;;;27.23;;
57107;SDS011;42987;52.916;6.542;2023-11-21T06:47:24;60.38;;;28.20;;
57107;SDS011;42987;52.916;6.542;2023-11-21T06:49:51;62.20;;;29.40;;
57107;SDS011;42987;52.916;6.542;2023-11-21T06:52:18;54.78;;;26.55;;
57107;SDS011;42987;52.916;6.542;2023-11-21T06:54:44;56.80;;;27.55;;
57107;SDS011;42987;52.916;6.542;2023-11-21T06:57:11;50.05;;;26.70;;
57107;SDS011;42987;52.916;6.542;2023-11-21T06:59:37;48.20;;;24.80;;
57107;SDS011;42987;52.916;6.542;2023-11-21T07:02:03;47.45;;;25.33;;
57107;SDS011;42987;52.916;6.542;2023-11-21T07:04:31;42.83;;;24.80;;
57107;SDS011;42987;52.916;6.542;2023-11-21T07:06:57;44.78;;;24.38;;
57107;SDS011;42987;52.916;6.542;2023-11-21T07:09:23;41.38;;;23.08;;
57107;SDS011;42987;52.916;6.542;2023-11-21T07:11:52;41.00;;;22.25;;
57107;SDS011;42987;52.916;6.542;2023-11-21T07:14:19;36.42;;;21.73;;
57107;SDS011;42987;52.916;6.542;2023-11-21T07:16:45;40.40;;;21.58;;
57107;SDS011;42987;52.916;6.542;2023-11-21T07:19:11;35.28;;;20.75;;
57107;SDS011;42987;52.916;6.542;2023-11-21T07:21:38;38.42;;;21.35;;
57107;SDS011;42987;52.916;6.542;2023-11-21T07:24:05;37.85;;;21.33;;
57107;SDS011;42987;52.916;6.542;2023-11-21T07:26:31;38.45;;;21.60;;
57107;SDS011;42987;52.916;6.542;2023-11-21T07:28:58;40.85;;;22.25;;
57107;SDS011;42987;52.916;6.542;2023-11-21T07:31:24;39.38;;;21.98;;
57107;SDS011;42987;52.916;6.542;2023-11-21T07:33:51;39.15;;;22.85;;
57107;SDS011;42987;52.916;6.542;2023-11-21T07:36:17;38.22;;;22.75;;
57107;SDS011;42987;52.916;6.542;2023-11-21T07:38:45;39.05;;;22.23;;
57107;SDS011;42987;52.916;6.542;2023-11-21T07:41:11;37.25;;;22.00;;
57107;SDS011;42987;52.916;6.542;2023-11-21T07:43:41;40.33;;;22.95;;
57107;SDS011;42987;52.916;6.542;2023-11-21T07:46:07;38.15;;;21.75;;
57107;SDS011;42987;52.916;6.542;2023-11-21T07:48:33;41.30;;;23.15;;
57107;SDS011;42987;52.916;6.542;2023-11-21T07:51:00;38.05;;;22.02;;
57107;SDS011;42987;52.916;6.542;2023-11-21T07:53:28;38.05;;;21.65;;
57107;SDS011;42987;52.916;6.542;2023-11-21T07:56:08;34.53;;;21.52;;
57107;SDS011;42987;52.916;6.542;2023-11-21T07:58:35;37.72;;;22.83;;
57107;SDS011;42987;52.916;6.542;2023-11-21T08:01:01;36.40;;;21.63;;
57107;SDS011;42987;52.916;6.542;2023-11-21T08:03:28;40.22;;;22.33;;
57107;SDS011;42987;52.916;6.542;2023-11-21T08:05:55;41.28;;;22.88;;
57107;SDS011;42987;52.916;6.542;2023-11-21T08:08:24;38.78;;;21.02;;
57107;SDS011;42987;52.916;6.542;2023-11-21T08:10:51;40.30;;;21.83;;
57107;SDS011;42987;52.916;6.542;2023-11-21T08:13:23;37.25;;;20.20;;
57107;SDS011;42987;52.916;6.542;2023-11-21T08:15:58;45.00;;;21.35;;
57107;SDS011;42987;52.916;6.542;2023-11-21T08:18:29;42.92;;;24.10;;
57107;SDS011;42987;52.916;6.542;2023-11-21T08:20:55;44.47;;;23.48;;
57107;SDS011;42987;52.916;6.542;2023-11-21T08:23:21;42.88;;;23.15;;
57107;SDS011;42987;52.916;6.542;2023-11-21T08:25:50;58.55;;;24.83;;
57107;SDS011;42987;52.916;6.542;2023-11-21T08:28:20;64.88;;;26.98;;
57107;SDS011;42987;52.916;6.542;2023-11-21T08:30:51;65.85;;;26.25;;
57107;SDS011;42987;52.916;6.542;2023-11-21T08:33:18;58.35;;;25.77;;
57107;SDS011;42987;52.916;6.542;2023-11-21T08:35:44;60.60;;;25.92;;
57107;SDS011;42987;52.916;6.542;2023-11-21T08:38:11;52.58;;;25.23;;
57107;SDS011;42987;52.916;6.542;2023-11-21T08:40:37;55.00;;;25.35;;
57107;SDS011;42987;52.916;6.542;2023-11-21T08:43:03;48.80;;;24.05;;
57107;SDS011;42987;52.916;6.542;2023-11-21T08:45:32;44.42;;;24.45;;
57107;SDS011;42987;52.916;6.542;2023-11-21T08:47:59;41.63;;;21.98;;
57107;SDS011;42987;52.916;6.542;2023-11-21T08:50:25;40.30;;;24.05;;
57107;SDS011;42987;52.916;6.542;2023-11-21T08:52:51;42.30;;;22.88;;
57107;SDS011;42987;52.916;6.542;2023-11-21T08:55:17;44.53;;;25.13;;
57107;SDS011;42987;52.916;6.542;2023-11-21T08:57:45;44.30;;;25.92;;
57107;SDS011;42987;52.916;6.542;2023-11-21T09:00:14;49.08;;;26.15;;
57107;SDS011;42987;52.916;6.542;2023-11-21T09:02:42;58.30;;;28.33;;
57107;SDS011;42987;52.916;6.542;2023-11-21T09:05:09;61.28;;;31.67;;
57107;SDS011;42987;52.916;6.542;2023-11-21T09:07:36;72.88;;;35.78;;
57107;SDS011;42987;52.916;6.542;2023-11-21T09:10:03;71.35;;;37.08;;
57107;SDS011;42987;52.916;6.542;2023-11-21T09:12:32;69.10;;;36.72;;
57107;SDS011;42987;52.916;6.542;2023-11-21T09:15:00;72.93;;;38.05;;
57107;SDS011;42987;52.916;6.542;2023-11-21T09:17:27;70.07;;;38.25;;
57107;SDS011;42987;52.916;6.542;2023-11-21T09:19:53;62.40;;;36.92;;
57107;SDS011;42987;52.916;6.542;2023-11-21T09:22:19;63.47;;;37.70;;
57107;SDS011;42987;52.916;6.542;2023-11-21T09:24:44;58.95;;;36.45;;
57107;SDS011;42987;52.916;6.542;2023-11-21T09:27:10;57.28;;;35.75;;
57107;SDS011;42987;52.916;6.542;2023-11-21T09:29:36;50.40;;;34.85;;
57107;SDS011;42987;52.916;6.542;2023-11-21T09:32:04;45.42;;;33.70;;
57107;SDS011;42987;52.916;6.542;2023-11-21T09:34:33;46.35;;;32.83;;
57107;SDS011;42987;52.916;6.542;2023-11-21T09:37:03;48.72;;;31.52;;
57107;SDS011;42987;52.916;6.542;2023-11-21T09:39:31;46.13;;;31.92;;
57107;SDS011;42987;52.916;6.542;2023-11-21T09:42:10;41.30;;;30.83;;
57107;SDS011;42987;52.916;6.542;2023-11-21T09:47:24;40.38;;;31.85;;
57107;SDS011;42987;52.916;6.542;2023-11-21T09:49:50;41.22;;;32.28;;
57107;SDS011;42987;52.916;6.542;2023-11-21T09:52:24;39.53;;;31.77;;
57107;SDS011;42987;52.916;6.542;2023-11-21T09:54:55;40.92;;;31.55;;
57107;SDS011;42987;52.916;6.542;2023-11-21T09:57:24;41.17;;;32.63;;
57107;SDS011;42987;52.916;6.542;2023-11-21T09:59:51;38.40;;;31.55;;
57107;SDS011;42987;52.916;6.542;2023-11-21T10:02:25;38.80;;;29.90;;
57107;SDS011;42987;52.916;6.542;2023-11-21T10:04:54;39.58;;;31.05;;
57107;SDS011;42987;52.916;6.542;2023-11-21T10:07:21;34.75;;;27.73;;
57107;SDS011;42987;52.916;6.542;2023-11-21T10:09:48;34.42;;;28.00;;
57107;SDS011;42987;52.916;6.542;2023-11-21T10:12:16;34.05;;;28.15;;
57107;SDS011;42987;52.916;6.542;2023-11-21T10:14:42;35.85;;;28.67;;
57107;SDS011;42987;52.916;6.542;2023-11-21T10:17:12;32.65;;;27.48;;
57107;SDS011;42987;52.916;6.542;2023-11-21T10:19:43;32.40;;;26.55;;
57107;SDS011;42987;52.916;6.542;2023-11-21T10:22:12;31.85;;;26.52;;
57107;SDS011;42987;52.916;6.542;2023-11-21T10:24:40;29.63;;;26.02;;
57107;SDS011;42987;52.916;6.542;2023-11-21T10:27:05;30.58;;;25.63;;
57107;SDS011;42987;52.916;6.542;2023-11-21T10:29:32;29.35;;;24.50;;
57107;SDS011;42987;52.916;6.542;2023-11-21T10:32:03;31.88;;;25.83;;
57107;SDS011;42987;52.916;6.542;2023-11-21T10:34:30;28.85;;;24.45;;
57107;SDS011;42987;52.916;6.542;2023-11-21T10:36:56;30.27;;;25.17;;
57107;SDS011;42987;52.916;6.542;2023-11-21T10:39:23;29.50;;;26.15;;
57107;SDS011;42987;52.916;6.542;2023-11-21T10:41:52;29.65;;;26.13;;
57107;SDS011;42987;52.916;6.542;2023-11-21T10:44:20;28.90;;;25.80;;
57107;SDS011;42987;52.916;6.542;2023-11-21T10:46:52;25.65;;;23.02;;
57107;SDS011;42987;52.916;6.542;2023-11-21T10:49:24;25.67;;;22.52;;
57107;SDS011;42987;52.916;6.542;2023-11-21T10:51:50;25.17;;;22.58;;
57107;SDS011;42987;52.916;6.542;2023-11-21T10:54:19;24.40;;;21.92;;
57107;SDS011;42987;52.916;6.542;2023-11-21T10:56:50;23.98;;;21.63;;
57107;SDS011;42987;52.916;6.542;2023-11-21T10:59:19;22.45;;;20.02;;
57107;SDS011;42987;52.916;6.542;2023-11-21T11:01:47;20.83;;;18.75;;
57107;SDS011;42987;52.916;6.542;2023-11-21T11:04:19;21.45;;;19.15;;
57107;SDS011;42987;52.916;6.542;2023-11-21T11:06:54;18.60;;;16.70;;
57107;SDS011;42987;52.916;6.542;2023-11-21T11:09:22;17.80;;;15.90;;
57107;SDS011;42987;52.916;6.542;2023-11-21T11:11:48;17.95;;;15.95;;
57107;SDS011;42987;52.916;6.542;2023-11-21T11:14:16;17.50;;;15.70;;
57107;SDS011;42987;52.916;6.542;2023-11-21T11:16:44;15.93;;;14.32;;
57107;SDS011;42987;52.916;6.542;2023-11-21T11:19:10;15.95;;;14.25;;
57107;SDS011;42987;52.916;6.542;2023-11-21T11:27:25;14.52;;;13.02;;
57107;SDS011;42987;52.916;6.542;2023-11-21T11:35:14;12.32;;;10.82;;
57107;SDS011;42987;52.916;6.542;2023-11-21T11:37:47;14.00;;;11.80;;
57107;SDS011;42987;52.916;6.542;2023-11-21T11:40:13;12.73;;;11.43;;
57107;SDS011;42987;52.916;6.542;2023-11-21T11:42:51;13.50;;;12.10;;
57107;SDS011;42987;52.916;6.542;2023-11-21T11:45:24;14.38;;;11.82;;
57107;SDS011;42987;52.916;6.542;2023-11-21T11:48:00;12.65;;;11.32;;
57107;SDS011;42987;52.916;6.542;2023-11-21T11:50:28;12.93;;;11.63;;
57107;SDS011;42987;52.916;6.542;2023-11-21T11:52:55;13.27;;;11.93;;
57107;SDS011;42987;52.916;6.542;2023-11-21T11:55:36;12.93;;;11.68;;
57107;SDS011;42987;52.916;6.542;2023-11-21T11:58:04;12.55;;;11.15;;
57107;SDS011;42987;52.916;6.542;2023-11-21T12:00:34;13.10;;;11.80;;
57107;SDS011;42987;52.916;6.542;2023-11-21T12:03:05;13.85;;;12.35;;
57107;SDS011;42987;52.916;6.542;2023-11-21T12:05:32;13.57;;;12.15;;
57107;SDS011;42987;52.916;6.542;2023-11-21T12:08:11;13.50;;;11.55;;
57107;SDS011;42987;52.916;6.542;2023-11-21T12:10:38;13.10;;;11.70;;
57107;SDS011;42987;52.916;6.542;2023-11-21T12:13:08;11.82;;;10.63;;
57107;SDS011;42987;52.916;6.542;2023-11-21T12:15:35;12.90;;;10.48;;
57107;SDS011;42987;52.916;6.542;2023-11-21T12:18:01;11.68;;;9.80;;
57107;SDS011;42987;52.916;6.542;2023-11-21T12:20:28;12.15;;;10.85;;
57107;SDS011;42987;52.916;6.542;2023-11-21T12:22:56;11.98;;;10.70;;
57107;SDS011;42987;52.916;6.542;2023-11-21T12:25:28;11.45;;;10.27;;
57107;SDS011;42987;52.916;6.542;2023-11-21T12:27:57;11.55;;;9.98;;
57107;SDS011;42987;52.916;6.542;2023-11-21T12:30:31;12.57;;;11.25;;
57107;SDS011;42987;52.916;6.542;2023-11-21T12:33:01;11.35;;;9.55;;
57107;SDS011;42987;52.916;6.542;2023-11-21T12:35:31;10.57;;;9.48;;
57107;SDS011;42987;52.916;6.542;2023-11-21T12:38:02;11.32;;;10.20;;
57107;SDS011;42987;52.916;6.542;2023-11-21T12:40:29;11.95;;;10.55;;
57107;SDS011;42987;52.916;6.542;2023-11-21T12:42:58;10.85;;;9.77;;
57107;SDS011;42987;52.916;6.542;2023-11-21T12:45:26;10.43;;;9.32;;
57107;SDS011;42987;52.916;6.542;2023-11-21T12:50:29;10.52;;;9.27;;
57107;SDS011;42987;52.916;6.542;2023-11-21T12:53:05;11.00;;;9.68;;
57107;SDS011;42987;52.916;6.542;2023-11-21T12:55:37;10.35;;;9.25;;
57107;SDS011;42987;52.916;6.542;2023-11-21T12:58:09;11.48;;;10.27;;
57107;SDS011;42987;52.916;6.542;2023-11-21T13:00:36;10.63;;;9.27;;
57107;SDS011;42987;52.916;6.542;2023-11-21T13:03:04;10.50;;;9.27;;
57107;SDS011;42987;52.916;6.542;2023-11-21T13:05:37;10.75;;;9.35;;
57107;SDS011;42987;52.916;6.542;2023-11-21T13:08:06;10.13;;;9.13;;
57107;SDS011;42987;52.916;6.542;2023-11-21T13:10:34;12.20;;;10.60;;
57107;SDS011;42987;52.916;6.542;2023-11-21T13:15:31;10.63;;;9.52;;
57107;SDS011;42987;52.916;6.542;2023-11-21T13:17:58;11.57;;;10.38;;
57107;SDS011;42987;52.916;6.542;2023-11-21T13:20:27;11.35;;;10.18;;
57107;SDS011;42987;52.916;6.542;2023-11-21T13:22:55;11.68;;;9.98;;
57107;SDS011;42987;52.916;6.542;2023-11-21T13:25:28;11.65;;;9.82;;
57107;SDS011;42987;52.916;6.542;2023-11-21T13:30:23;11.48;;;9.70;;
57107;SDS011;42987;52.916;6.542;2023-11-21T13:32:55;11.50;;;9.68;;
57107;SDS011;42987;52.916;6.542;2023-11-21T13:35:25;10.35;;;9.27;;
57107;SDS011;42987;52.916;6.542;2023-11-21T13:38:06;10.82;;;9.65;;
57107;SDS011;42987;52.916;6.542;2023-11-21T13:40:37;10.38;;;9.02;;
57107;SDS011;42987;52.916;6.542;2023-11-21T13:43:11;12.75;;;9.52;;
57107;SDS011;42987;52.916;6.542;2023-11-21T13:45:39;10.75;;;9.40;;
57107;SDS011;42987;52.916;6.542;2023-11-21T13:48:05;10.23;;;8.95;;
57107;SDS011;42987;52.916;6.542;2023-11-21T13:50:52;12.77;;;9.73;;
57107;SDS011;42987;52.916;6.542;2023-11-21T13:55:49;11.25;;;10.05;;
57107;SDS011;42987;52.916;6.542;2023-11-21T13:58:16;9.32;;;8.25;;
57107;SDS011;42987;52.916;6.542;2023-11-21T14:00:57;9.50;;;8.50;;
57107;SDS011;42987;52.916;6.542;2023-11-21T14:03:23;10.63;;;9.02;;
57107;SDS011;42987;52.916;6.542;2023-11-21T14:05:58;11.23;;;8.93;;
57107;SDS011;42987;52.916;6.542;2023-11-21T14:08:25;10.68;;;8.88;;
57107;SDS011;42987;52.916;6.542;2023-11-21T14:10:57;9.68;;;8.68;;
57107;SDS011;42987;52.916;6.542;2023-11-21T14:13:25;9.45;;;7.88;;
57107;SDS011;42987;52.916;6.542;2023-11-21T14:15:53;9.07;;;7.55;;
57107;SDS011;42987;52.916;6.542;2023-11-21T14:20:57;10.60;;;7.82;;
57107;SDS011;42987;52.916;6.542;2023-11-21T14:23:23;9.63;;;8.07;;
57107;SDS011;42987;52.916;6.542;2023-11-21T14:25:49;9.35;;;7.60;;
57107;SDS011;42987;52.916;6.542;2023-11-21T14:28:16;8.52;;;7.43;;
57107;SDS011;42987;52.916;6.542;2023-11-21T14:30:41;8.10;;;7.07;;
57107;SDS011;42987;52.916;6.542;2023-11-21T14:33:07;8.88;;;7.85;;
57107;SDS011;42987;52.916;6.542;2023-11-21T14:35:36;10.57;;;7.78;;
57107;SDS011;42987;52.916;6.542;2023-11-21T14:38:02;8.07;;;7.25;;
57107;SDS011;42987;52.916;6.542;2023-11-21T14:40:33;9.25;;;8.18;;
57107;SDS011;42987;52.916;6.542;2023-11-21T14:43:01;9.63;;;7.75;;
57107;SDS011;42987;52.916;6.542;2023-11-21T14:45:34;9.68;;;7.70;;
57107;SDS011;42987;52.916;6.542;2023-11-21T14:48:00;9.32;;;8.40;;
57107;SDS011;42987;52.916;6.542;2023-11-21T14:50:40;11.98;;;8.38;;
57107;SDS011;42987;52.916;6.542;2023-11-21T14:53:07;10.88;;;8.63;;
57107;SDS011;42987;52.916;6.542;2023-11-21T14:55:38;10.80;;;8.23;;
57107;SDS011;42987;52.916;6.542;2023-11-21T14:58:16;11.05;;;8.57;;